Time;durP1;ratioP1;P1;durP2;ratioP2;P2;SDS_P1;SDS_P2;PMS_P1;PMS_P2;Temp;Humidity;BMP_temperature;BMP_pressure;BME280_temperature;BME280_humidity;BME280_pressure;Samples;Min_cycle;Max_cycle;Signal;HPM_P1;HPM_P2
2023/01/16 00:00:15;;;;;;;2.40;1.03;;;1.90;99.90;;;;;;5007471;28;20033;-82
2023/01/16 00:02:41;;;;;;;1.93;0.93;;;1.90;99.90;;;;;;5007711;28;20530;-82
2023/01/16 00:05:07;;;;;;;4.00;1.00;;;1.90;99.90;;;;;;5026042;28;20096;-82
2023/01/16 00:07:32;;;;;;;1.20;0.87;;;1.90;99.90;;;;;;5026522;28;20022;-82
2023/01/16 00:09:57;;;;;;;2.03;0.77;;;1.90;99.90;;;;;;5027926;28;20040;-82
2023/01/16 00:12:23;;;;;;;3.10;1.20;;;1.90;99.90;;;;;;5026457;28;20033;-82
2023/01/16 00:14:49;;;;;;;3.13;1.00;;;1.90;99.90;;;;;;5024844;28;20052;-82
2023/01/16 00:17:14;;;;;;;2.00;1.00;;;1.90;99.90;;;;;;5026237;28;20056;-82
2023/01/16 00:19:40;;;;;;;5.93;1.17;;;1.90;99.90;;;;;;5026951;28;20040;-82
2023/01/16 00:22:05;;;;;;;2.40;0.90;;;1.90;99.90;;;;;;5006586;28;20055;-82
2023/01/16 00:24:30;;;;;;;7.43;2.00;;;1.90;99.90;;;;;;5025110;28;20036;-82
2023/01/16 00:26:56;;;;;;;1.60;0.90;;;1.90;99.90;;;;;;5025405;28;20044;-82
2023/01/16 00:29:22;;;;;;;1.87;1.03;;;1.90;99.90;;;;;;5005499;28;20044;-82
2023/01/16 00:31:47;;;;;;;1.53;0.90;;;1.90;99.90;;;;;;5004213;28;20033;-82
2023/01/16 00:34:13;;;;;;;0.70;0.70;;;1.90;99.90;;;;;;5026693;28;20111;-82
2023/01/16 00:36:39;;;;;;;1.90;1.00;;;1.80;99.90;;;;;;5024403;28;20033;-82
2023/01/16 00:39:05;;;;;;;1.73;0.93;;;1.80;99.90;;;;;;5025114;28;21309;-82
2023/01/16 00:41:31;;;;;;;3.13;1.40;;;1.70;99.90;;;;;;5004320;28;20669;-82
2023/01/16 00:43:58;;;;;;;3.50;1.30;;;1.70;99.90;;;;;;5027908;28;20030;-82
2023/01/16 00:46:25;;;;;;;3.50;0.97;;;1.60;99.90;;;;;;5025974;28;20024;-82
2023/01/16 00:48:50;;;;;;;2.43;0.97;;;1.60;99.90;;;;;;5022042;28;20552;-82
2023/01/16 00:51:16;;;;;;;2.70;1.60;;;1.50;99.90;;;;;;5023106;28;20049;-82
2023/01/16 00:53:41;;;;;;;1.67;1.03;;;1.60;99.90;;;;;;5027059;28;20026;-82
2023/01/16 00:56:07;;;;;;;2.97;1.20;;;1.60;99.90;;;;;;5027257;28;20305;-82
2023/01/16 00:58:34;;;;;;;5.80;1.10;;;1.50;99.90;;;;;;5026374;28;20460;-82
2023/01/16 01:01:00;;;;;;;3.70;1.10;;;1.50;99.90;;;;;;5006934;28;20029;-82
2023/01/16 01:03:27;;;;;;;3.03;1.20;;;1.50;99.90;;;;;;5027135;28;20021;-82
2023/01/16 01:05:53;;;;;;;5.23;1.47;;;1.50;99.90;;;;;;5028372;28;20029;-82
2023/01/16 01:08:18;;;;;;;4.53;1.27;;;1.50;99.90;;;;;;5023625;28;20022;-82
2023/01/16 01:10:44;;;;;;;2.50;1.17;;;1.50;99.90;;;;;;5027458;28;20025;-82
2023/01/16 01:13:10;;;;;;;3.20;1.30;;;1.50;99.90;;;;;;5023593;28;20032;-81
2023/01/16 01:15:36;;;;;;;2.67;1.20;;;1.50;99.90;;;;;;5026201;28;20022;-82
2023/01/16 01:18:02;;;;;;;1.77;1.10;;;1.50;99.90;;;;;;5026968;28;20068;-82
2023/01/16 01:20:28;;;;;;;2.53;1.00;;;1.50;99.90;;;;;;5026524;28;20064;-82
2023/01/16 01:22:53;;;;;;;3.03;1.20;;;1.40;99.90;;;;;;5006163;28;20136;-82
2023/01/16 01:25:19;;;;;;;4.23;1.10;;;1.40;99.90;;;;;;5023638;28;20025;-82
2023/01/16 01:27:44;;;;;;;2.20;1.00;;;1.40;99.90;;;;;;5026009;28;20030;-82
2023/01/16 01:30:10;;;;;;;3.10;1.10;;;1.40;99.90;;;;;;5023428;28;20494;-82
2023/01/16 01:32:39;;;;;;;2.93;0.93;;;1.40;99.90;;;;;;5026469;28;20030;-82
2023/01/16 01:35:08;;;;;;;3.87;1.23;;;1.40;99.90;;;;;;5022244;28;20025;-82
2023/01/16 01:37:34;;;;;;;2.50;0.90;;;1.40;99.90;;;;;;5024560;28;20044;-82
2023/01/16 01:40:01;;;;;;;1.50;0.97;;;1.50;99.90;;;;;;5024487;28;20050;-82
2023/01/16 01:42:51;;;;;;;2.50;1.00;;;1.40;99.90;;;;;;5006929;28;20072;-82
2023/01/16 01:45:31;;;;;;;1.63;1.00;;;1.40;99.90;;;;;;5006044;28;20030;-82
2023/01/16 01:48:30;;;;;;;2.13;0.93;;;1.40;99.90;;;;;;5024704;28;20030;-82
2023/01/16 01:51:01;;;;;;;1.90;0.90;;;1.50;99.90;;;;;;4974517;28;20045;-82
2023/01/16 01:53:39;;;;;;;4.13;0.93;;;1.50;99.90;;;;;;5005211;28;20025;-82
2023/01/16 01:56:24;;;;;;;1.43;1.00;;;1.50;99.90;;;;;;5005648;28;20036;-82
2023/01/16 01:58:54;;;;;;;2.92;1.02;;;1.50;99.90;;;;;;5026144;28;20029;-82
2023/01/16 02:01:20;;;;;;;2.50;0.90;;;1.40;99.90;;;;;;5024263;28;21448;-82
2023/01/16 02:03:53;;;;;;;2.40;1.10;;;1.50;99.90;;;;;;5003911;28;20029;-82
2023/01/16 02:06:23;;;;;;;1.33;0.87;;;1.40;99.90;;;;;;5004137;28;20124;-82
2023/01/16 02:08:52;;;;;;;1.80;0.97;;;1.40;99.90;;;;;;5023005;28;20025;-82
2023/01/16 02:11:25;;;;;;;1.47;1.10;;;1.50;99.90;;;;;;5023748;28;20018;-82
2023/01/16 02:14:00;;;;;;;3.20;1.13;;;1.40;99.90;;;;;;5024886;28;20794;-81
2023/01/16 02:19:37;;;;;;;1.67;0.90;;;1.50;99.90;;;;;;5023043;28;20044;-82
2023/01/16 02:22:27;;;;;;;1.63;0.90;;;1.40;99.90;;;;;;5022408;28;20070;-82
2023/01/16 02:25:22;;;;;;;2.10;1.00;;;1.40;99.90;;;;;;5024654;28;20013;-82
2023/01/16 02:28:11;;;;;;;1.20;0.90;;;1.40;99.90;;;;;;5005869;28;20033;-82
2023/01/16 02:31:07;;;;;;;1.27;0.80;;;1.40;99.90;;;;;;5028952;28;20025;-82
2023/01/16 02:33:57;;;;;;;0.98;0.80;;;1.40;99.90;;;;;;5029720;28;20617;-82
2023/01/16 02:36:54;;;;;;;2.30;0.90;;;1.40;99.90;;;;;;5030625;28;20049;-82
2023/01/16 02:39:38;;;;;;;2.63;1.00;;;1.40;99.90;;;;;;5019229;28;20386;-82
2023/01/16 02:42:25;;;;;;;2.50;1.10;;;1.40;99.90;;;;;;5009506;28;20389;-83
2023/01/16 02:45:01;;;;;;;4.10;0.90;;;1.40;99.90;;;;;;5020121;28;20029;-82
2023/01/16 02:47:46;;;;;;;1.37;0.90;;;1.40;99.90;;;;;;5014374;28;20025;-82
2023/01/16 02:50:12;;;;;;;0.93;0.77;;;1.40;99.90;;;;;;5013397;28;20497;-82
2023/01/16 02:52:48;;;;;;;1.80;0.83;;;1.40;99.90;;;;;;5031686;28;20025;-82
2023/01/16 02:55:29;;;;;;;1.17;0.90;;;1.40;99.90;;;;;;5012008;28;20102;-82
2023/01/16 02:57:59;;;;;;;2.97;0.83;;;1.40;99.90;;;;;;5015225;28;20056;-82
2023/01/16 03:00:27;;;;;;;1.63;0.80;;;1.40;99.90;;;;;;5011424;28;20030;-82
2023/01/16 03:02:52;;;;;;;1.93;1.13;;;1.40;99.90;;;;;;5027799;28;20455;-82
2023/01/16 03:05:18;;;;;;;3.17;0.93;;;1.40;99.90;;;;;;5032726;28;20029;-82
2023/01/16 03:07:50;;;;;;;8.10;2.43;;;1.40;99.90;;;;;;5031921;28;20038;-82
2023/01/16 03:11:06;;;;;;;2.50;1.33;;;1.40;99.90;;;;;;5027335;28;20026;-82
2023/01/16 03:13:48;;;;;;;1.90;0.80;;;1.40;99.90;;;;;;5031669;28;20537;-82
2023/01/16 03:16:28;;;;;;;2.03;0.80;;;1.40;99.90;;;;;;5030826;28;20296;-81
2023/01/16 03:19:05;;;;;;;3.97;0.80;;;1.40;99.90;;;;;;5029272;28;20079;-82
2023/01/16 03:21:46;;;;;;;1.00;0.90;;;1.40;99.90;;;;;;5023937;28;20029;-82
2023/01/16 03:24:18;;;;;;;2.60;0.90;;;1.40;99.90;;;;;;5026320;28;20026;-82
2023/01/16 03:26:48;;;;;;;2.50;0.83;;;1.40;99.90;;;;;;5027310;28;20040;-82
2023/01/16 03:29:43;;;;;;;0.73;0.70;;;1.40;99.90;;;;;;5027658;28;20064;-81
2023/01/16 03:32:29;;;;;;;1.40;0.90;;;1.40;99.90;;;;;;5011314;28;20368;-81
2023/01/16 03:35:08;;;;;;;1.08;0.80;;;1.30;99.90;;;;;;5029804;28;20030;-81
2023/01/16 03:37:45;;;;;;;0.87;0.73;;;1.30;99.90;;;;;;5027297;28;20434;-81
2023/01/16 03:40:15;;;;;;;1.30;0.90;;;1.30;99.90;;;;;;5028982;28;20042;-82
2023/01/16 03:42:57;;;;;;;2.80;1.00;;;1.20;99.90;;;;;;5029358;28;20017;-82
2023/01/16 03:45:32;;;;;;;2.00;0.90;;;1.20;99.90;;;;;;5033155;28;20022;-82
2023/01/16 03:48:04;;;;;;;;;;;1.20;99.90;;;;;;5028423;28;20374;-82
2023/01/16 03:50:32;;;;;;;1.40;0.90;;;1.20;99.90;;;;;;5018021;28;19905;-82
2023/01/16 03:53:05;;;;;;;1.60;0.93;;;1.10;99.90;;;;;;5013558;28;20045;-82
2023/01/16 03:55:39;;;;;;;1.53;0.90;;;1.10;99.90;;;;;;5027015;28;20116;-82
2023/01/16 03:58:12;;;;;;;1.48;1.00;;;1.00;99.90;;;;;;5029660;28;20029;-82
2023/01/16 04:00:50;;;;;;;3.23;1.10;;;1.00;99.90;;;;;;5028763;28;20040;-82
2023/01/16 04:03:26;;;;;;;2.70;1.00;;;1.00;99.90;;;;;;5027444;28;20053;-83
2023/01/16 04:05:59;;;;;;;1.70;1.17;;;0.90;99.90;;;;;;5027407;28;20811;-82
2023/01/16 04:08:34;;;;;;;1.30;1.00;;;0.90;99.90;;;;;;5031015;28;20083;-82
2023/01/16 04:11:00;;;;;;;1.90;1.10;;;0.80;99.90;;;;;;5030801;28;20028;-82
2023/01/16 04:13:34;;;;;;;4.30;1.17;;;0.80;99.90;;;;;;5029308;28;20017;-82
2023/01/16 04:16:01;;;;;;;5.73;1.77;;;0.70;99.90;;;;;;5027365;28;20814;-82
2023/01/16 04:18:32;;;;;;;1.17;0.90;;;0.70;99.90;;;;;;5021083;28;20033;-82
2023/01/16 04:20:58;;;;;;;3.63;1.20;;;0.70;99.90;;;;;;5027603;28;20014;-82
2023/01/16 04:23:24;;;;;;;1.93;1.10;;;0.60;99.90;;;;;;5027755;28;20029;-82
2023/01/16 04:25:50;;;;;;;3.37;1.40;;;0.60;99.90;;;;;;5024492;28;20490;-82
2023/01/16 04:28:15;;;;;;;1.40;0.90;;;0.60;99.90;;;;;;5007985;28;20069;-82
2023/01/16 04:30:41;;;;;;;2.20;1.00;;;0.60;99.90;;;;;;5024428;28;20034;-81
2023/01/16 04:33:07;;;;;;;2.13;1.07;;;0.50;99.90;;;;;;5024795;28;20032;-82
2023/01/16 04:35:35;;;;;;;2.17;1.03;;;0.50;99.90;;;;;;5029494;28;20022;-82
2023/01/16 04:38:01;;;;;;;3.00;0.90;;;0.50;99.90;;;;;;5026994;28;20048;-82
2023/01/16 04:40:26;;;;;;;2.30;1.00;;;0.50;99.90;;;;;;5026218;28;20482;-82
2023/01/16 04:42:54;;;;;;;1.47;1.10;;;0.50;99.90;;;;;;5025400;28;20486;-82
2023/01/16 04:45:20;;;;;;;2.63;1.10;;;0.40;99.90;;;;;;5005601;28;20026;-82
2023/01/16 04:47:50;;;;;;;1.83;0.90;;;0.40;99.90;;;;;;5027208;28;20053;-82
2023/01/16 04:50:17;;;;;;;1.23;0.90;;;0.40;99.90;;;;;;5008034;28;20032;-82
2023/01/16 04:52:42;;;;;;;2.00;1.07;;;0.30;99.90;;;;;;5024173;28;20454;-81
2023/01/16 04:55:09;;;;;;;3.30;1.33;;;0.30;99.90;;;;;;5007633;28;20025;-82
2023/01/16 04:57:35;;;;;;;3.77;1.23;;;0.30;99.90;;;;;;5006237;28;20029;-82
2023/01/16 05:00:02;;;;;;;2.83;1.00;;;0.30;99.90;;;;;;5025286;28;20031;-82
2023/01/16 05:02:27;;;;;;;4.60;1.10;;;0.20;99.90;;;;;;5007165;28;20021;-82
2023/01/16 05:04:53;;;;;;;0.97;0.80;;;0.20;99.90;;;;;;5009426;28;20385;-82
2023/01/16 05:07:18;;;;;;;1.63;0.83;;;0.10;99.90;;;;;;5009866;28;20025;-82
2023/01/16 05:09:44;;;;;;;1.67;1.00;;;0.10;99.90;;;;;;5023829;28;20561;-82
2023/01/16 05:12:09;;;;;;;2.43;0.93;;;0.10;99.90;;;;;;5009079;28;20025;-82
2023/01/16 05:14:35;;;;;;;3.97;1.20;;;0.10;99.90;;;;;;5029050;28;20137;-82
2023/01/16 05:17:00;;;;;;;1.17;0.83;;;0.10;99.90;;;;;;5027022;28;20115;-83
2023/01/16 05:19:26;;;;;;;1.80;1.00;;;0.10;99.90;;;;;;5025589;28;20075;-82
2023/01/16 05:21:51;;;;;;;1.67;1.03;;;0.10;99.90;;;;;;5025588;28;20025;-83
2023/01/16 05:24:17;;;;;;;3.37;0.97;;;0.10;99.90;;;;;;5023985;28;20037;-82
2023/01/16 05:26:42;;;;;;;1.97;1.00;;;0.10;99.90;;;;;;5026607;28;20382;-82
2023/01/16 05:29:08;;;;;;;3.13;0.90;;;0.10;99.90;;;;;;5025336;28;20364;-81
2023/01/16 05:31:34;;;;;;;1.30;0.93;;;0.10;99.90;;;;;;5007760;28;20482;-82
2023/01/16 05:34:00;;;;;;;1.93;0.97;;;0.10;99.90;;;;;;5029141;28;20083;-82
2023/01/16 05:36:25;;;;;;;2.30;1.50;;;0.10;99.90;;;;;;5023419;28;20041;-82
2023/01/16 05:38:51;;;;;;;2.43;1.17;;;0.10;99.90;;;;;;5006517;28;20026;-83
2023/01/16 05:41:16;;;;;;;3.33;1.10;;;0.10;99.90;;;;;;5025403;28;20060;-82
2023/01/16 05:43:42;;;;;;;1.93;1.20;;;0.10;99.90;;;;;;5010603;28;20028;-82
2023/01/16 05:46:08;;;;;;;2.17;1.20;;;0.20;99.90;;;;;;5003628;28;20076;-82
2023/01/16 05:48:35;;;;;;;2.27;1.30;;;0.20;99.90;;;;;;5025643;28;20014;-82
2023/01/16 05:51:02;;;;;;;1.50;1.10;;;0.20;99.90;;;;;;5025173;28;20021;-87
2023/01/16 05:53:29;;;;;;;2.10;1.10;;;0.10;99.90;;;;;;5006309;28;20021;-88
2023/01/16 05:55:55;;;;;;;3.67;1.33;;;0.10;99.90;;;;;;5009700;28;20070;-88
2023/01/16 05:58:21;;;;;;;3.73;1.23;;;0.10;99.90;;;;;;5013991;28;20041;-88
2023/01/16 06:00:46;;;;;;;2.70;1.50;;;0.10;99.90;;;;;;5012382;28;20462;-88
2023/01/16 06:03:12;;;;;;;2.53;1.43;;;0.20;99.90;;;;;;5035390;28;20079;-88
2023/01/16 06:05:37;;;;;;;2.57;1.23;;;0.10;99.90;;;;;;5035733;28;20086;-88
2023/01/16 06:08:04;;;;;;;2.73;1.20;;;0.10;99.90;;;;;;5035950;28;20026;-89
2023/01/16 06:10:30;;;;;;;2.03;1.23;;;0.20;99.90;;;;;;5039133;28;20025;-89
2023/01/16 06:12:56;;;;;;;2.43;1.30;;;0.10;99.90;;;;;;5034005;28;20029;-88
2023/01/16 06:15:22;;;;;;;2.33;1.20;;;0.10;99.90;;;;;;5017050;28;20095;-88
2023/01/16 06:17:48;;;;;;;1.47;1.10;;;0.10;99.90;;;;;;5033793;28;20022;-88
2023/01/16 06:20:13;;;;;;;1.77;1.20;;;0.10;99.90;;;;;;5024381;28;20339;-88
2023/01/16 06:22:39;;;;;;;2.23;1.30;;;0.10;99.90;;;;;;5041041;28;20415;-87
2023/01/16 06:25:05;;;;;;;2.30;1.30;;;0.10;99.90;;;;;;5034090;28;20030;-86
2023/01/16 06:27:32;;;;;;;2.07;1.50;;;0.10;99.90;;;;;;5027168;28;20041;-88
2023/01/16 06:29:57;;;;;;;3.00;1.37;;;0.10;99.90;;;;;;5035321;28;20437;-88
2023/01/16 06:32:23;;;;;;;2.60;1.40;;;0.10;99.90;;;;;;5032831;28;20033;-83
2023/01/16 06:34:48;;;;;;;2.87;1.50;;;0.10;99.90;;;;;;5023412;28;20038;-84
2023/01/16 06:37:14;;;;;;;3.70;1.47;;;0.10;99.90;;;;;;5027205;28;20033;-87
2023/01/16 06:39:39;;;;;;;2.20;1.30;;;0.10;99.90;;;;;;5033042;28;20076;-87
2023/01/16 06:42:05;;;;;;;4.53;1.90;;;0.10;99.90;;;;;;5028852;28;20504;-83
2023/01/16 06:44:32;;;;;;;3.87;2.30;;;0.00;99.90;;;;;;5025364;28;20026;-83
2023/01/16 06:46:58;;;;;;;5.13;2.50;;;0.00;99.90;;;;;;5026087;28;20025;-80
2023/01/16 06:49:24;;;;;;;7.00;3.50;;;0.00;99.90;;;;;;5014134;28;20036;-80
2023/01/16 06:51:49;;;;;;;7.90;3.80;;;0.00;99.90;;;;;;5013101;28;20021;-80
2023/01/16 06:54:15;;;;;;;13.33;7.37;;;-0.10;99.90;;;;;;5028480;28;20057;-80
2023/01/16 06:56:40;;;;;;;11.43;6.57;;;0.00;99.90;;;;;;5031068;28;20040;-80
2023/01/16 06:59:06;;;;;;;6.07;3.27;;;-0.10;99.90;;;;;;5028812;28;20013;-80
2023/01/16 07:01:32;;;;;;;5.27;3.00;;;-0.10;99.90;;;;;;5033500;28;20382;-80
2023/01/16 07:03:58;;;;;;;9.73;4.17;;;-0.10;99.90;;;;;;5028998;28;20053;-80
2023/01/16 07:06:25;;;;;;;14.87;6.57;;;-0.10;99.90;;;;;;5004442;28;20116;-83
2023/01/16 07:08:51;;;;;;;20.80;9.17;;;-0.10;99.90;;;;;;5020712;28;20103;-83
2023/01/16 07:11:18;;;;;;;20.53;7.53;;;-0.20;99.90;;;;;;5012670;28;20030;-83
2023/01/16 07:13:44;;;;;;;15.53;7.27;;;-0.20;99.90;;;;;;5016789;28;20037;-80
2023/01/16 07:24:37;;;;;;;5.20;2.30;;;-0.30;99.90;;;;;;5019047;28;20201;-80
2023/01/16 07:27:05;;;;;;;9.63;2.40;;;-0.30;99.90;;;;;;5020163;28;20880;-80
2023/01/16 07:29:34;;;;;;;6.87;2.67;;;-0.30;99.90;;;;;;5019528;28;20347;-80
2023/01/16 07:32:01;;;;;;;11.43;4.07;;;-0.30;99.90;;;;;;5016772;28;21125;-83
2023/01/16 07:34:26;;;;;;;9.17;4.70;;;-0.30;99.90;;;;;;5015724;28;20128;-83
2023/01/16 07:36:52;;;;;;;9.07;4.13;;;-0.30;99.90;;;;;;5016642;28;20045;-82
2023/01/16 07:39:17;;;;;;;12.03;3.67;;;-0.30;99.90;;;;;;5020600;28;20377;-80
2023/01/16 07:41:43;;;;;;;17.00;3.63;;;-0.30;99.90;;;;;;4996079;28;20140;-82
2023/01/16 07:44:09;;;;;;;7.13;2.57;;;-0.30;99.90;;;;;;5004162;28;20097;-82
2023/01/16 07:46:35;;;;;;;8.97;2.50;;;-0.30;99.90;;;;;;5005385;28;20124;-83
2023/01/16 07:49:00;;;;;;;8.77;2.60;;;-0.20;99.90;;;;;;5003451;28;20759;-83
2023/01/16 07:51:26;;;;;;;4.57;2.13;;;-0.20;99.90;;;;;;5011150;28;20151;-81
2023/01/16 07:53:52;;;;;;;7.67;3.03;;;-0.10;99.90;;;;;;5019097;28;20030;-80
2023/01/16 07:56:17;;;;;;;7.60;1.90;;;-0.20;99.90;;;;;;5006617;28;21412;-79
2023/01/16 07:58:43;;;;;;;8.37;2.00;;;-0.10;99.90;;;;;;5002887;28;20394;-80
2023/01/16 08:01:10;;;;;;;9.27;2.27;;;-0.10;99.90;;;;;;4986298;28;20087;-80
2023/01/16 08:03:36;;;;;;;9.07;2.37;;;0.00;99.90;;;;;;4986633;28;20030;-80
2023/01/16 08:06:02;;;;;;;4.70;2.13;;;0.00;99.90;;;;;;5007308;28;20033;-80
2023/01/16 08:08:28;;;;;;;4.37;2.40;;;0.10;99.90;;;;;;5003970;28;20033;-86
2023/01/16 08:10:55;;;;;;;5.53;2.33;;;0.10;99.90;;;;;;5003970;28;20045;-80
2023/01/16 08:13:21;;;;;;;3.77;1.90;;;0.20;99.90;;;;;;5024113;28;20087;-80
2023/01/16 08:15:47;;;;;;;5.83;1.67;;;0.20;99.90;;;;;;5023366;28;20429;-80
2023/01/16 08:18:13;;;;;;;5.60;1.93;;;0.30;99.90;;;;;;5020660;28;20018;-80
2023/01/16 08:20:38;;;;;;;9.07;3.67;;;0.40;99.90;;;;;;5006780;28;20036;-80
2023/01/16 08:23:04;;;;;;;5.77;2.53;;;0.40;99.90;;;;;;5015512;28;20050;-81
2023/01/16 08:25:30;;;;;;;4.07;2.30;;;0.50;99.90;;;;;;5019766;28;20069;-81
2023/01/16 08:27:55;;;;;;;5.77;1.70;;;0.60;99.90;;;;;;5019422;28;20072;-81
2023/01/16 08:30:21;;;;;;;3.37;1.50;;;0.70;99.90;;;;;;5017783;28;20038;-80
2023/01/16 08:32:46;;;;;;;3.10;1.53;;;0.70;99.90;;;;;;5001656;28;20026;-81
2023/01/16 08:35:12;;;;;;;2.63;1.60;;;0.80;99.90;;;;;;4992982;28;20112;-80
2023/01/16 08:37:37;;;;;;;2.70;1.60;;;0.90;99.90;;;;;;5016482;28;20362;-81
2023/01/16 08:40:04;;;;;;;2.97;1.83;;;1.00;99.90;;;;;;5008860;28;20143;-80
2023/01/16 08:53:32;;;;;;;5.37;1.60;;;1.50;99.90;;;;;;5016947;28;20115;-83
2023/01/16 08:55:58;;;;;;;6.20;1.50;;;1.60;99.90;;;;;;5028106;28;20541;-80
2023/01/16 08:58:24;;;;;;;4.70;1.40;;;1.70;99.90;;;;;;5031014;28;20045;-80
2023/01/16 09:00:50;;;;;;;4.77;1.70;;;1.80;99.90;;;;;;5029684;28;20022;-80
2023/01/16 09:03:19;;;;;;;3.13;1.40;;;1.90;99.90;;;;;;5030009;28;20417;-80
2023/01/16 09:05:45;;;;;;;1.83;1.30;;;2.00;99.90;;;;;;5029963;28;20083;-79
2023/01/16 09:08:11;;;;;;;3.17;1.60;;;2.10;99.90;;;;;;5030556;28;20415;-79
2023/01/16 09:10:37;;;;;;;4.07;1.40;;;2.10;99.90;;;;;;5006977;28;20060;-79
2023/01/16 09:15:47;;;;;;;4.07;1.40;;;2.40;99.90;;;;;;5029086;28;20101;-79
2023/01/16 09:18:13;;;;;;;2.47;1.40;;;2.50;99.90;;;;;;5026212;28;20711;-79
2023/01/16 09:20:38;;;;;;;2.00;1.40;;;2.60;99.90;;;;;;5019959;28;20524;-85
2023/01/16 09:23:04;;;;;;;3.23;1.33;;;2.60;99.90;;;;;;5014974;28;20063;-86
2023/01/16 09:25:32;;;;;;;3.07;1.37;;;2.70;99.90;;;;;;5015748;28;20071;-79
2023/01/16 09:27:58;;;;;;;3.77;1.60;;;2.70;99.90;;;;;;5018644;28;20757;-79
2023/01/16 09:30:25;;;;;;;61.57;32.47;;;2.70;99.90;;;;;;5018352;28;20493;-79
2023/01/16 09:32:50;;;;;;;181.87;64.70;;;2.70;99.90;;;;;;5019362;28;20033;-79
2023/01/16 09:35:16;;;;;;;37.70;15.07;;;2.80;99.90;;;;;;4999311;28;20033;-79
2023/01/16 09:37:45;;;;;;;23.83;9.50;;;2.80;99.90;;;;;;5021244;28;20040;-79
2023/01/16 09:40:15;;;;;;;12.17;4.33;;;2.80;99.90;;;;;;5020299;28;21474;-79
2023/01/16 09:43:40;;;;;;;32.17;12.63;;;2.90;99.90;;;;;;5021690;28;20034;-78
2023/01/16 09:46:18;;;;;;;12.80;6.97;;;2.90;99.90;;;;;;5002452;28;20070;-79
2023/01/16 09:49:01;;;;;;;7.67;4.70;;;2.90;99.90;;;;;;5029192;28;20022;-79
2023/01/16 09:51:39;;;;;;;4.23;2.80;;;2.90;99.90;;;;;;5029611;28;20076;-79
2023/01/16 09:59:54;;;;;;;4.70;2.00;;;3.00;99.90;;;;;;5030426;28;20522;-79
2023/01/16 10:02:30;;;;;;;5.70;2.47;;;3.00;99.90;;;;;;5031612;28;20025;-79
2023/01/16 10:04:57;;;;;;;4.83;3.63;;;3.10;99.90;;;;;;5024115;28;20832;-85
2023/01/16 10:07:41;;;;;;;6.10;4.83;;;3.10;99.90;;;;;;5019326;28;20038;-85
2023/01/16 10:10:25;;;;;;;5.17;3.20;;;3.20;99.90;;;;;;5017824;28;20565;-86
2023/01/16 10:13:24;;;;;;;17.00;8.77;;;3.30;99.90;;;;;;5019258;28;20100;-86
2023/01/16 10:16:17;;;;;;;11.00;5.83;;;3.30;99.90;;;;;;5018597;28;20399;-86
2023/01/16 10:18:55;;;;;;;16.13;9.03;;;3.40;99.90;;;;;;5017290;28;20065;-82
2023/01/16 10:21:20;;;;;;;18.27;9.60;;;3.50;99.90;;;;;;5015876;28;20033;-83
2023/01/16 10:24:16;;;;;;;37.80;17.60;;;3.60;99.90;;;;;;5015301;28;20026;-79
2023/01/16 10:26:54;;;;;;;61.73;27.27;;;3.80;99.90;;;;;;5005888;28;20038;-83
2023/01/16 10:29:34;;;;;;;10.63;4.83;;;4.20;99.90;;;;;;5016583;28;20029;-83
2023/01/16 10:32:06;;;;;;;13.63;6.50;;;4.40;99.90;;;;;;5015205;28;20469;-78
2023/01/16 10:34:35;;;;;;;54.63;23.30;;;4.60;99.90;;;;;;5020226;28;20036;-78
2023/01/16 10:37:02;;;;;;;67.30;31.10;;;4.60;99.90;;;;;;5019718;28;20092;-78
2023/01/16 10:39:34;;;;;;;26.20;12.43;;;4.50;99.90;;;;;;5001769;28;20037;-78
2023/01/16 10:50:36;;;;;;;5.47;2.30;;;4.70;99.90;;;;;;5023362;28;20103;-79
2023/01/16 10:53:03;;;;;;;2.40;1.63;;;4.80;99.90;;;;;;5022563;28;20041;-78
2023/01/16 10:55:31;;;;;;;4.23;2.10;;;4.80;99.90;;;;;;5023641;28;20025;-79
2023/01/16 10:58:02;;;;;;;4.17;2.97;;;4.80;99.90;;;;;;5024652;28;20068;-79
2023/01/16 11:00:39;;;;;;;4.90;2.00;;;4.70;99.90;;;;;;5024663;28;20017;-79
2023/01/16 11:03:17;;;;;;;4.83;2.67;;;4.70;99.90;;;;;;5024681;28;20018;-79
2023/01/16 11:05:43;;;;;;;5.23;1.63;;;4.70;99.90;;;;;;5023462;28;20036;-79
2023/01/16 11:08:18;;;;;;;5.70;1.63;;;4.70;99.90;;;;;;5021790;28;20021;-79
2023/01/16 11:10:48;;;;;;;;;;;4.80;99.90;;;;;;5023214;28;20751;-85
2023/01/16 11:18:57;;;;;;;7.53;2.97;;;5.30;99.90;;;;;;5019955;28;20044;-85
2023/01/16 11:21:31;;;;;;;7.33;2.83;;;5.40;99.90;;;;;;5020121;28;20026;-85
2023/01/16 11:24:10;;;;;;;11.17;5.73;;;5.60;99.90;;;;;;5019254;28;20073;-85
2023/01/16 11:26:36;;;;;;;3.17;1.83;;;5.70;99.90;;;;;;5019405;28;20148;-86
2023/01/16 11:29:02;;;;;;;4.03;1.87;;;5.90;99.90;;;;;;5017428;28;20025;-87
2023/01/16 11:31:31;;;;;;;2.97;1.60;;;5.90;99.90;;;;;;5006283;28;20033;-86
2023/01/16 11:34:01;;;;;;;4.23;1.57;;;6.00;99.90;;;;;;5034647;28;20044;-86
2023/01/16 11:36:29;;;;;;;5.00;1.50;;;6.10;99.90;;;;;;5032779;28;20033;-86
2023/01/16 11:38:55;;;;;;;2.23;1.50;;;6.10;99.90;;;;;;5014712;28;20021;-87
2023/01/16 11:41:32;;;;;;;4.27;1.50;;;6.10;99.90;;;;;;5032785;28;20141;-87
2023/01/16 11:47:00;;;;;;;6.77;1.50;;;6.10;99.90;;;;;;5034737;28;20032;-87
2023/01/16 11:49:47;;;;;;;3.80;1.40;;;6.10;99.90;;;;;;5035020;28;20386;-87
2023/01/16 11:52:26;;;;;;;3.67;2.00;;;6.00;99.90;;;;;;5041127;28;20097;-86
2023/01/16 11:54:57;;;;;;;4.33;1.50;;;5.90;99.90;;;;;;5037861;28;20033;-85
2023/01/16 11:57:34;;;;;;;4.23;1.63;;;5.90;99.90;;;;;;5039594;28;20049;-86
2023/01/16 12:00:32;;;;;;;3.30;1.50;;;6.00;99.90;;;;;;5037607;28;20021;-86
2023/01/16 12:03:50;;;;;;;2.80;1.50;;;6.10;99.90;;;;;;5023133;28;20021;-86
2023/01/16 12:06:25;;;;;;;3.80;1.40;;;6.20;99.90;;;;;;5025167;28;20026;-86
2023/01/16 12:09:05;;;;;;;4.78;1.50;;;6.30;99.90;;;;;;5020732;28;20341;-86
2023/01/16 12:11:37;;;;;;;6.87;1.90;;;6.40;99.90;;;;;;5019440;28;20053;-86
2023/01/16 12:14:17;;;;;;;2.67;1.40;;;6.40;99.90;;;;;;5002028;28;20159;-86
2023/01/16 12:17:22;;;;;;;5.03;1.47;;;6.40;99.90;;;;;;4999748;28;20026;-86
2023/01/16 12:20:07;;;;;;;2.40;1.40;;;6.40;99.90;;;;;;5018615;28;20606;-87
2023/01/16 12:23:14;;;;;;;2.10;1.37;;;6.40;99.90;;;;;;5018978;28;20025;-84
2023/01/16 12:26:04;;;;;;;3.77;1.60;;;6.30;99.90;;;;;;4996227;28;20037;-85
2023/01/16 12:28:46;;;;;;;3.53;1.60;;;6.30;99.90;;;;;;5023269;28;20026;-85
2023/01/16 12:31:36;;;;;;;11.63;6.33;;;6.40;99.90;;;;;;5017485;28;20033;-85
2023/01/16 12:34:35;;;;;;;3.73;2.20;;;6.40;99.90;;;;;;5004001;28;20044;-85
2023/01/16 12:37:25;;;;;;;7.00;5.03;;;6.30;99.90;;;;;;5020235;28;20034;-85
2023/01/16 12:40:03;;;;;;;4.57;2.60;;;6.30;99.90;;;;;;5019544;28;20128;-85
2023/01/16 12:46:08;;;;;;;5.57;2.95;;;6.20;99.90;;;;;;5019744;28;20045;-85
2023/01/16 12:48:35;;;;;;;7.53;4.30;;;6.10;99.90;;;;;;5018925;28;20108;-85
2023/01/16 12:51:19;;;;;;;3.97;2.10;;;6.10;99.90;;;;;;5020309;28;20502;-85
2023/01/16 12:54:18;;;;;;;2.30;1.93;;;6.10;99.90;;;;;;5018449;28;20096;-85
2023/01/16 12:56:53;;;;;;;5.50;1.67;;;6.00;99.90;;;;;;5018372;28;20037;-85
2023/01/16 12:59:24;;;;;;;2.67;1.40;;;6.00;99.90;;;;;;5019694;28;20120;-86
2023/01/16 13:01:56;;;;;;;6.90;1.40;;;6.00;99.90;;;;;;4999041;28;20121;-85
2023/01/16 13:04:38;;;;;;;2.77;1.60;;;5.90;99.90;;;;;;5017990;28;20087;-85
2023/01/16 13:07:06;;;;;;;2.60;1.60;;;5.80;99.90;;;;;;5018573;28;20048;-85
2023/01/16 13:13:20;;;;;;;3.83;1.60;;;5.80;99.90;;;;;;5018738;28;20040;-86
2023/01/16 13:15:33;;;;;;;4.40;1.90;;;5.70;99.90;;;;;;5017348;28;20084;-85
2023/01/16 13:18:10;;;;;;;6.60;2.20;;;5.70;99.90;;;;;;5019427;28;20462;-85
2023/01/16 13:20:38;;;;;;;2.53;1.60;;;5.70;99.90;;;;;;5019490;28;21443;-85
2023/01/16 13:23:14;;;;;;;4.10;1.80;;;5.70;99.90;;;;;;5018100;28;20029;-85
2023/01/16 13:25:46;;;;;;;3.10;1.77;;;5.70;99.90;;;;;;5016785;28;20018;-85
2023/01/16 13:28:25;;;;;;;7.87;2.20;;;5.70;99.90;;;;;;5019732;28;20112;-86
2023/01/16 13:30:55;;;;;;;5.87;2.40;;;5.70;99.90;;;;;;5018344;28;20033;-85
2023/01/16 13:33:24;;;;;;;2.63;1.60;;;5.70;99.90;;;;;;4999552;28;20116;-85
2023/01/16 13:35:56;;;;;;;3.23;1.63;;;5.80;99.90;;;;;;5000480;28;20032;-87
2023/01/16 13:38:56;;;;;;;11.50;1.83;;;5.80;99.90;;;;;;5019828;28;20142;-87
2023/01/16 13:41:24;;;;;;;2.83;1.70;;;5.80;99.90;;;;;;5018667;28;20062;-86
2023/01/16 13:47:07;;;;;;;5.00;2.40;;;5.80;99.90;;;;;;5019036;28;20092;-86
2023/01/16 13:49:33;;;;;;;9.00;2.10;;;5.80;99.90;;;;;;5000172;28;20485;-86
2023/01/16 13:52:02;;;;;;;4.27;2.00;;;5.80;99.90;;;;;;5018218;28;20117;-87
2023/01/16 13:54:42;;;;;;;4.47;2.80;;;5.80;99.90;;;;;;5024745;28;20030;-86
2023/01/16 13:57:20;;;;;;;4.53;2.70;;;5.80;99.90;;;;;;5025005;28;20067;-90
2023/01/16 13:59:49;;;;;;;4.90;2.60;;;5.80;99.90;;;;;;5029549;28;20021;-90
2023/01/16 14:02:43;;;;;;;4.40;2.53;;;5.80;99.90;;;;;;5029258;28;20044;-90
2023/01/16 14:05:36;;;;;;;5.07;2.80;;;5.80;99.90;;;;;;5027387;28;20025;-90
2023/01/16 14:11:28;;;;;;;4.73;2.00;;;5.70;99.90;;;;;;5023846;28;20120;-90
2023/01/16 14:17:21;;;;;;;4.17;1.90;;;5.60;99.90;;;;;;5023974;28;20387;-86
2023/01/16 14:20:01;;;;;;;4.10;1.80;;;5.60;99.90;;;;;;5005385;28;20038;-90
2023/01/16 14:25:07;;;;;;;5.07;1.63;;;5.50;99.90;;;;;;5026671;28;20037;-90